sensor_id;sensor_type;location;lat;lon;timestamp;P1;durP1;ratioP1;P2;durP2;ratioP2
22129;SDS011;11231;50.746;4.272;2023-11-21T00:01:02;55.80;;;24.90;;
22129;SDS011;11231;50.746;4.272;2023-11-21T00:03:29;54.17;;;24.73;;
22129;SDS011;11231;50.746;4.272;2023-11-21T00:05:55;51.67;;;22.57;;
22129;SDS011;11231;50.746;4.272;2023-11-21T00:08:21;48.37;;;24.13;;
22129;SDS011;11231;50.746;4.272;2023-11-21T00:10:47;48.03;;;23.60;;
22129;SDS011;11231;50.746;4.272;2023-11-21T00:13:13;51.03;;;24.13;;
22129;SDS011;11231;50.746;4.272;2023-11-21T00:15:39;47.60;;;22.90;;
22129;SDS011;11231;50.746;4.272;2023-11-21T00:18:05;50.53;;;23.93;;
22129;SDS011;11231;50.746;4.272;2023-11-21T00:20:31;57.10;;;25.63;;
22129;SDS011;11231;50.746;4.272;2023-11-21T00:22:57;51.33;;;24.53;;
22129;SDS011;11231;50.746;4.272;2023-11-21T00:25:24;49.37;;;23.80;;
22129;SDS011;11231;50.746;4.272;2023-11-21T00:27:50;49.60;;;23.70;;
22129;SDS011;11231;50.746;4.272;2023-11-21T00:30:16;45.27;;;22.93;;
22129;SDS011;11231;50.746;4.272;2023-11-21T00:32:42;51.63;;;25.13;;
22129;SDS011;11231;50.746;4.272;2023-11-21T00:35:08;53.67;;;25.17;;
22129;SDS011;11231;50.746;4.272;2023-11-21T00:37:34;54.97;;;25.63;;
22129;SDS011;11231;50.746;4.272;2023-11-21T00:40:00;51.03;;;23.73;;
22129;SDS011;11231;50.746;4.272;2023-11-21T00:42:30;52.07;;;23.10;;
22129;SDS011;11231;50.746;4.272;2023-11-21T00:44:59;53.07;;;23.20;;
22129;SDS011;11231;50.746;4.272;2023-11-21T00:47:25;55.60;;;24.83;;
22129;SDS011;11231;50.746;4.272;2023-11-21T00:49:50;53.43;;;24.77;;
22129;SDS011;11231;50.746;4.272;2023-11-21T00:52:16;51.30;;;24.07;;
22129;SDS011;11231;50.746;4.272;2023-11-21T00:54:42;54.23;;;24.87;;
22129;SDS011;11231;50.746;4.272;2023-11-21T00:57:08;57.73;;;24.17;;
22129;SDS011;11231;50.746;4.272;2023-11-21T00:59:33;57.37;;;24.77;;
22129;SDS011;11231;50.746;4.272;2023-11-21T01:02:00;54.60;;;24.67;;
22129;SDS011;11231;50.746;4.272;2023-11-21T01:04:26;56.10;;;25.53;;
22129;SDS011;11231;50.746;4.272;2023-11-21T01:06:53;54.23;;;23.60;;
22129;SDS011;11231;50.746;4.272;2023-11-21T01:09:19;51.97;;;23.93;;
22129;SDS011;11231;50.746;4.272;2023-11-21T01:11:44;49.60;;;23.60;;
22129;SDS011;11231;50.746;4.272;2023-11-21T01:14:11;55.97;;;25.37;;
22129;SDS011;11231;50.746;4.272;2023-11-21T01:16:38;58.67;;;25.40;;
22129;SDS011;11231;50.746;4.272;2023-11-21T01:19:04;62.03;;;25.93;;
22129;SDS011;11231;50.746;4.272;2023-11-21T01:21:30;68.97;;;27.87;;
22129;SDS011;11231;50.746;4.272;2023-11-21T01:23:56;67.37;;;27.07;;
22129;SDS011;11231;50.746;4.272;2023-11-21T01:26:22;65.20;;;27.27;;
22129;SDS011;11231;50.746;4.272;2023-11-21T01:28:48;67.03;;;27.50;;
22129;SDS011;11231;50.746;4.272;2023-11-21T01:31:14;69.37;;;27.57;;
22129;SDS011;11231;50.746;4.272;2023-11-21T01:33:40;61.03;;;26.97;;
22129;SDS011;11231;50.746;4.272;2023-11-21T01:36:06;59.87;;;26.70;;
22129;SDS011;11231;50.746;4.272;2023-11-21T01:38:32;68.37;;;27.00;;
22129;SDS011;11231;50.746;4.272;2023-11-21T01:40:59;63.50;;;26.97;;
22129;SDS011;11231;50.746;4.272;2023-11-21T01:43:26;61.40;;;27.37;;
22129;SDS011;11231;50.746;4.272;2023-11-21T01:45:53;61.13;;;26.80;;
22129;SDS011;11231;50.746;4.272;2023-11-21T01:48:22;56.07;;;26.03;;
22129;SDS011;11231;50.746;4.272;2023-11-21T01:50:48;55.50;;;25.47;;
22129;SDS011;11231;50.746;4.272;2023-11-21T01:53:14;57.07;;;23.73;;
22129;SDS011;11231;50.746;4.272;2023-11-21T01:55:41;52.47;;;25.53;;
22129;SDS011;11231;50.746;4.272;2023-11-21T01:58:09;59.07;;;26.77;;
22129;SDS011;11231;50.746;4.272;2023-11-21T02:00:36;57.97;;;25.80;;
22129;SDS011;11231;50.746;4.272;2023-11-21T02:03:03;56.27;;;26.40;;
22129;SDS011;11231;50.746;4.272;2023-11-21T02:05:29;60.20;;;24.23;;
22129;SDS011;11231;50.746;4.272;2023-11-21T02:07:57;49.27;;;22.97;;
22129;SDS011;11231;50.746;4.272;2023-11-21T02:10:22;49.80;;;23.57;;
22129;SDS011;11231;50.746;4.272;2023-11-21T02:12:49;52.73;;;23.97;;
22129;SDS011;11231;50.746;4.272;2023-11-21T02:15:15;48.37;;;22.90;;
22129;SDS011;11231;50.746;4.272;2023-11-21T02:17:45;53.83;;;24.70;;
22129;SDS011;11231;50.746;4.272;2023-11-21T02:20:12;54.87;;;25.57;;
22129;SDS011;11231;50.746;4.272;2023-11-21T02:22:43;48.37;;;25.13;;
22129;SDS011;11231;50.746;4.272;2023-11-21T02:25:10;52.53;;;23.50;;
22129;SDS011;11231;50.746;4.272;2023-11-21T02:27:36;47.77;;;23.40;;
22129;SDS011;11231;50.746;4.272;2023-11-21T02:30:03;50.03;;;22.90;;
22129;SDS011;11231;50.746;4.272;2023-11-21T02:32:30;51.20;;;22.57;;
22129;SDS011;11231;50.746;4.272;2023-11-21T02:35:00;46.13;;;23.43;;
22129;SDS011;11231;50.746;4.272;2023-11-21T02:37:32;50.23;;;23.63;;
22129;SDS011;11231;50.746;4.272;2023-11-21T02:39:58;46.33;;;23.47;;
22129;SDS011;11231;50.746;4.272;2023-11-21T02:42:24;56.33;;;25.50;;
22129;SDS011;11231;50.746;4.272;2023-11-21T02:44:50;56.63;;;26.03;;
22129;SDS011;11231;50.746;4.272;2023-11-21T02:47:16;59.40;;;27.57;;
22129;SDS011;11231;50.746;4.272;2023-11-21T02:49:41;55.17;;;25.57;;
22129;SDS011;11231;50.746;4.272;2023-11-21T02:52:09;56.97;;;27.27;;
22129;SDS011;11231;50.746;4.272;2023-11-21T02:54:34;53.43;;;25.10;;
22129;SDS011;11231;50.746;4.272;2023-11-21T02:57:01;51.77;;;26.27;;
22129;SDS011;11231;50.746;4.272;2023-11-21T02:59:29;58.30;;;27.83;;
22129;SDS011;11231;50.746;4.272;2023-11-21T03:01:54;52.00;;;26.10;;
22129;SDS011;11231;50.746;4.272;2023-11-21T03:04:22;56.13;;;26.77;;
22129;SDS011;11231;50.746;4.272;2023-11-21T03:06:48;55.33;;;27.13;;
22129;SDS011;11231;50.746;4.272;2023-11-21T03:09:14;58.57;;;27.53;;
22129;SDS011;11231;50.746;4.272;2023-11-21T03:11:41;59.83;;;28.67;;
22129;SDS011;11231;50.746;4.272;2023-11-21T03:14:07;55.70;;;26.70;;
22129;SDS011;11231;50.746;4.272;2023-11-21T03:16:32;55.23;;;27.73;;
22129;SDS011;11231;50.746;4.272;2023-11-21T03:18:58;54.97;;;28.57;;
22129;SDS011;11231;50.746;4.272;2023-11-21T03:21:24;53.77;;;28.07;;
22129;SDS011;11231;50.746;4.272;2023-11-21T03:23:51;50.90;;;27.37;;
22129;SDS011;11231;50.746;4.272;2023-11-21T03:26:17;52.73;;;26.60;;
22129;SDS011;11231;50.746;4.272;2023-11-21T03:28:44;49.40;;;26.23;;
22129;SDS011;11231;50.746;4.272;2023-11-21T03:31:11;51.63;;;26.93;;
22129;SDS011;11231;50.746;4.272;2023-11-21T03:33:36;50.10;;;25.47;;
22129;SDS011;11231;50.746;4.272;2023-11-21T03:36:02;45.50;;;25.30;;
22129;SDS011;11231;50.746;4.272;2023-11-21T03:38:29;52.67;;;26.17;;
22129;SDS011;11231;50.746;4.272;2023-11-21T03:40:55;47.43;;;26.10;;
22129;SDS011;11231;50.746;4.272;2023-11-21T03:43:21;48.93;;;26.10;;
22129;SDS011;11231;50.746;4.272;2023-11-21T03:45:46;57.40;;;26.83;;
22129;SDS011;11231;50.746;4.272;2023-11-21T03:48:13;47.87;;;25.87;;
22129;SDS011;11231;50.746;4.272;2023-11-21T03:50:39;49.87;;;26.33;;
22129;SDS011;11231;50.746;4.272;2023-11-21T03:53:05;46.37;;;26.43;;
22129;SDS011;11231;50.746;4.272;2023-11-21T03:55:31;54.33;;;25.30;;
22129;SDS011;11231;50.746;4.272;2023-11-21T03:57:57;49.77;;;25.00;;
22129;SDS011;11231;50.746;4.272;2023-11-21T04:00:24;54.90;;;25.83;;
22129;SDS011;11231;50.746;4.272;2023-11-21T04:02:52;54.00;;;26.33;;
22129;SDS011;11231;50.746;4.272;2023-11-21T04:05:19;48.67;;;24.87;;
22129;SDS011;11231;50.746;4.272;2023-11-21T04:07:51;47.20;;;24.80;;
22129;SDS011;11231;50.746;4.272;2023-11-21T04:10:17;44.47;;;24.63;;
22129;SDS011;11231;50.746;4.272;2023-11-21T04:12:43;47.17;;;25.60;;
22129;SDS011;11231;50.746;4.272;2023-11-21T04:15:09;45.60;;;25.73;;
22129;SDS011;11231;50.746;4.272;2023-11-21T04:17:35;49.90;;;25.40;;
22129;SDS011;11231;50.746;4.272;2023-11-21T04:20:02;47.67;;;24.73;;
22129;SDS011;11231;50.746;4.272;2023-11-21T04:22:41;48.27;;;25.13;;
22129;SDS011;11231;50.746;4.272;2023-11-21T04:25:09;44.90;;;24.23;;
22129;SDS011;11231;50.746;4.272;2023-11-21T04:27:39;45.03;;;22.33;;
22129;SDS011;11231;50.746;4.272;2023-11-21T04:30:05;43.37;;;24.27;;
22129;SDS011;11231;50.746;4.272;2023-11-21T04:32:31;46.53;;;24.40;;
22129;SDS011;11231;50.746;4.272;2023-11-21T04:34:57;43.60;;;24.73;;
22129;SDS011;11231;50.746;4.272;2023-11-21T04:37:23;50.07;;;26.33;;
22129;SDS011;11231;50.746;4.272;2023-11-21T04:39:49;48.93;;;24.47;;
22129;SDS011;11231;50.746;4.272;2023-11-21T04:42:15;45.97;;;26.47;;
22129;SDS011;11231;50.746;4.272;2023-11-21T04:44:41;48.07;;;25.43;;
22129;SDS011;11231;50.746;4.272;2023-11-21T04:47:07;45.57;;;24.63;;
22129;SDS011;11231;50.746;4.272;2023-11-21T04:49:33;47.60;;;25.20;;
22129;SDS011;11231;50.746;4.272;2023-11-21T04:51:59;43.47;;;24.73;;
22129;SDS011;11231;50.746;4.272;2023-11-21T04:54:24;49.97;;;24.10;;
22129;SDS011;11231;50.746;4.272;2023-11-21T04:56:50;47.80;;;24.17;;
22129;SDS011;11231;50.746;4.272;2023-11-21T04:59:16;49.07;;;23.43;;
22129;SDS011;11231;50.746;4.272;2023-11-21T05:01:41;44.07;;;23.93;;
22129;SDS011;11231;50.746;4.272;2023-11-21T05:04:07;48.90;;;24.67;;
22129;SDS011;11231;50.746;4.272;2023-11-21T05:06:34;44.90;;;23.50;;
22129;SDS011;11231;50.746;4.272;2023-11-21T05:09:00;49.73;;;24.00;;
22129;SDS011;11231;50.746;4.272;2023-11-21T05:11:25;41.47;;;23.03;;
22129;SDS011;11231;50.746;4.272;2023-11-21T05:13:52;46.03;;;23.37;;
22129;SDS011;11231;50.746;4.272;2023-11-21T05:16:19;46.90;;;23.57;;
22129;SDS011;11231;50.746;4.272;2023-11-21T05:18:45;50.33;;;25.13;;
22129;SDS011;11231;50.746;4.272;2023-11-21T05:21:11;45.17;;;23.97;;
22129;SDS011;11231;50.746;4.272;2023-11-21T05:23:36;47.67;;;23.27;;
22129;SDS011;11231;50.746;4.272;2023-11-21T05:26:02;40.47;;;22.43;;
22129;SDS011;11231;50.746;4.272;2023-11-21T05:28:28;37.77;;;22.07;;
22129;SDS011;11231;50.746;4.272;2023-11-21T05:30:54;38.83;;;21.23;;
22129;SDS011;11231;50.746;4.272;2023-11-21T05:33:20;43.10;;;22.77;;
22129;SDS011;11231;50.746;4.272;2023-11-21T05:35:45;41.13;;;22.70;;
22129;SDS011;11231;50.746;4.272;2023-11-21T05:38:13;41.87;;;21.53;;
22129;SDS011;11231;50.746;4.272;2023-11-21T05:40:39;43.10;;;21.57;;
22129;SDS011;11231;50.746;4.272;2023-11-21T05:43:05;41.53;;;21.13;;
22129;SDS011;11231;50.746;4.272;2023-11-21T05:45:32;38.03;;;20.40;;
22129;SDS011;11231;50.746;4.272;2023-11-21T05:47:58;44.40;;;21.77;;
22129;SDS011;11231;50.746;4.272;2023-11-21T05:50:24;48.93;;;22.90;;
22129;SDS011;11231;50.746;4.272;2023-11-21T05:52:50;46.83;;;22.20;;
22129;SDS011;11231;50.746;4.272;2023-11-21T05:55:15;47.13;;;22.93;;
22129;SDS011;11231;50.746;4.272;2023-11-21T05:57:42;46.07;;;22.87;;
22129;SDS011;11231;50.746;4.272;2023-11-21T06:00:09;40.77;;;21.73;;
22129;SDS011;11231;50.746;4.272;2023-11-21T06:02:43;43.43;;;22.70;;
22129;SDS011;11231;50.746;4.272;2023-11-21T06:05:10;46.10;;;22.93;;
22129;SDS011;11231;50.746;4.272;2023-11-21T06:07:36;42.83;;;22.93;;
22129;SDS011;11231;50.746;4.272;2023-11-21T06:10:03;42.47;;;22.37;;
22129;SDS011;11231;50.746;4.272;2023-11-21T06:12:34;49.70;;;22.43;;
22129;SDS011;11231;50.746;4.272;2023-11-21T06:15:04;43.90;;;22.50;;
22129;SDS011;11231;50.746;4.272;2023-11-21T06:17:32;41.40;;;21.60;;
22129;SDS011;11231;50.746;4.272;2023-11-21T06:20:00;43.75;;;24.40;;
22129;SDS011;11231;50.746;4.272;2023-11-21T06:22:26;46.30;;;23.37;;
22129;SDS011;11231;50.746;4.272;2023-11-21T06:24:51;52.23;;;24.40;;
22129;SDS011;11231;50.746;4.272;2023-11-21T06:27:17;48.60;;;23.57;;
22129;SDS011;11231;50.746;4.272;2023-11-21T06:29:43;40.97;;;21.80;;
22129;SDS011;11231;50.746;4.272;2023-11-21T06:32:09;39.20;;;21.77;;
22129;SDS011;11231;50.746;4.272;2023-11-21T06:34:34;42.27;;;22.10;;
22129;SDS011;11231;50.746;4.272;2023-11-21T06:37:03;43.03;;;23.23;;
22129;SDS011;11231;50.746;4.272;2023-11-21T06:39:29;44.27;;;21.43;;
22129;SDS011;11231;50.746;4.272;2023-11-21T06:41:54;35.50;;;21.30;;
22129;SDS011;11231;50.746;4.272;2023-11-21T06:44:20;40.30;;;20.20;;
22129;SDS011;11231;50.746;4.272;2023-11-21T06:46:46;43.13;;;21.93;;
22129;SDS011;11231;50.746;4.272;2023-11-21T06:49:11;44.17;;;23.30;;
22129;SDS011;11231;50.746;4.272;2023-11-21T06:51:37;45.90;;;22.97;;
22129;SDS011;11231;50.746;4.272;2023-11-21T06:54:03;43.93;;;22.53;;
22129;SDS011;11231;50.746;4.272;2023-11-21T06:56:29;41.60;;;22.50;;
22129;SDS011;11231;50.746;4.272;2023-11-21T06:58:55;53.70;;;24.20;;
22129;SDS011;11231;50.746;4.272;2023-11-21T07:01:21;51.40;;;24.83;;
22129;SDS011;11231;50.746;4.272;2023-11-21T07:03:47;49.80;;;23.97;;
22129;SDS011;11231;50.746;4.272;2023-11-21T07:06:13;43.77;;;23.67;;
22129;SDS011;11231;50.746;4.272;2023-11-21T07:08:39;45.27;;;22.60;;
22129;SDS011;11231;50.746;4.272;2023-11-21T07:11:04;41.97;;;23.30;;
22129;SDS011;11231;50.746;4.272;2023-11-21T07:13:30;44.93;;;22.90;;
22129;SDS011;11231;50.746;4.272;2023-11-21T07:15:57;43.13;;;23.03;;
22129;SDS011;11231;50.746;4.272;2023-11-21T07:18:24;40.63;;;22.17;;
22129;SDS011;11231;50.746;4.272;2023-11-21T07:20:50;44.90;;;23.27;;
22129;SDS011;11231;50.746;4.272;2023-11-21T07:23:15;38.77;;;22.77;;
22129;SDS011;11231;50.746;4.272;2023-11-21T07:25:41;37.33;;;22.33;;
22129;SDS011;11231;50.746;4.272;2023-11-21T07:28:08;52.80;;;23.60;;
22129;SDS011;11231;50.746;4.272;2023-11-21T07:30:34;44.97;;;23.57;;
22129;SDS011;11231;50.746;4.272;2023-11-21T07:33:00;49.13;;;24.20;;
22129;SDS011;11231;50.746;4.272;2023-11-21T07:35:26;47.43;;;24.17;;
22129;SDS011;11231;50.746;4.272;2023-11-21T07:37:51;49.20;;;25.47;;
22129;SDS011;11231;50.746;4.272;2023-11-21T07:40:17;52.77;;;25.37;;
22129;SDS011;11231;50.746;4.272;2023-11-21T07:42:44;56.80;;;25.00;;
22129;SDS011;11231;50.746;4.272;2023-11-21T07:45:10;59.10;;;26.03;;
22129;SDS011;11231;50.746;4.272;2023-11-21T07:47:36;56.20;;;26.80;;
22129;SDS011;11231;50.746;4.272;2023-11-21T07:50:04;60.60;;;26.53;;
22129;SDS011;11231;50.746;4.272;2023-11-21T07:52:32;58.90;;;27.53;;
22129;SDS011;11231;50.746;4.272;2023-11-21T07:54:58;73.73;;;27.57;;
22129;SDS011;11231;50.746;4.272;2023-11-21T07:57:24;69.50;;;28.17;;
22129;SDS011;11231;50.746;4.272;2023-11-21T07:59:51;62.27;;;28.27;;
22129;SDS011;11231;50.746;4.272;2023-11-21T08:02:18;73.10;;;29.27;;
22129;SDS011;11231;50.746;4.272;2023-11-21T08:04:44;57.93;;;28.33;;
22129;SDS011;11231;50.746;4.272;2023-11-21T08:07:10;59.70;;;28.37;;
22129;SDS011;11231;50.746;4.272;2023-11-21T08:09:36;68.87;;;28.47;;
22129;SDS011;11231;50.746;4.272;2023-11-21T08:12:01;70.33;;;30.60;;
22129;SDS011;11231;50.746;4.272;2023-11-21T08:14:28;71.53;;;28.83;;
22129;SDS011;11231;50.746;4.272;2023-11-21T08:16:53;80.33;;;30.30;;
22129;SDS011;11231;50.746;4.272;2023-11-21T08:19:22;74.47;;;29.57;;
22129;SDS011;11231;50.746;4.272;2023-11-21T08:21:50;75.43;;;30.27;;
22129;SDS011;11231;50.746;4.272;2023-11-21T08:24:16;75.07;;;31.13;;
22129;SDS011;11231;50.746;4.272;2023-11-21T08:26:42;80.70;;;29.63;;
22129;SDS011;11231;50.746;4.272;2023-11-21T08:29:08;70.57;;;30.97;;
22129;SDS011;11231;50.746;4.272;2023-11-21T08:31:34;67.50;;;28.50;;
22129;SDS011;11231;50.746;4.272;2023-11-21T08:33:59;69.73;;;30.57;;
22129;SDS011;11231;50.746;4.272;2023-11-21T08:36:27;70.93;;;30.10;;
22129;SDS011;11231;50.746;4.272;2023-11-21T08:38:52;73.40;;;32.27;;
22129;SDS011;11231;50.746;4.272;2023-11-21T08:41:18;72.13;;;30.47;;
22129;SDS011;11231;50.746;4.272;2023-11-21T08:43:47;72.10;;;29.57;;
22129;SDS011;11231;50.746;4.272;2023-11-21T08:46:14;75.30;;;31.40;;
22129;SDS011;11231;50.746;4.272;2023-11-21T08:48:42;72.60;;;30.87;;
22129;SDS011;11231;50.746;4.272;2023-11-21T08:51:09;68.50;;;29.40;;
22129;SDS011;11231;50.746;4.272;2023-11-21T08:53:39;71.03;;;31.20;;
22129;SDS011;11231;50.746;4.272;2023-11-21T08:56:05;65.77;;;30.13;;
22129;SDS011;11231;50.746;4.272;2023-11-21T08:58:31;66.93;;;29.97;;
22129;SDS011;11231;50.746;4.272;2023-11-21T09:00:57;75.23;;;31.17;;
22129;SDS011;11231;50.746;4.272;2023-11-21T09:03:23;71.47;;;30.03;;
22129;SDS011;11231;50.746;4.272;2023-11-21T09:05:50;64.87;;;29.27;;
22129;SDS011;11231;50.746;4.272;2023-11-21T09:08:16;65.27;;;29.37;;
22129;SDS011;11231;50.746;4.272;2023-11-21T09:10:42;63.57;;;28.43;;
22129;SDS011;11231;50.746;4.272;2023-11-21T09:13:10;52.30;;;26.53;;
22129;SDS011;11231;50.746;4.272;2023-11-21T09:15:35;66.43;;;28.53;;
22129;SDS011;11231;50.746;4.272;2023-11-21T09:18:01;68.93;;;28.80;;
22129;SDS011;11231;50.746;4.272;2023-11-21T09:20:27;62.23;;;28.10;;
22129;SDS011;11231;50.746;4.272;2023-11-21T09:22:53;67.53;;;28.47;;
22129;SDS011;11231;50.746;4.272;2023-11-21T09:25:20;61.50;;;28.50;;
22129;SDS011;11231;50.746;4.272;2023-11-21T09:27:46;58.57;;;27.33;;
22129;SDS011;11231;50.746;4.272;2023-11-21T09:30:12;55.10;;;26.07;;
22129;SDS011;11231;50.746;4.272;2023-11-21T09:32:39;52.47;;;25.60;;
22129;SDS011;11231;50.746;4.272;2023-11-21T09:35:05;65.90;;;27.50;;
22129;SDS011;11231;50.746;4.272;2023-11-21T09:37:33;56.93;;;26.97;;
22129;SDS011;11231;50.746;4.272;2023-11-21T09:40:03;59.63;;;27.23;;
22129;SDS011;11231;50.746;4.272;2023-11-21T09:42:32;59.33;;;26.83;;
22129;SDS011;11231;50.746;4.272;2023-11-21T09:45:05;53.53;;;26.23;;
22129;SDS011;11231;50.746;4.272;2023-11-21T09:47:41;59.70;;;27.17;;
22129;SDS011;11231;50.746;4.272;2023-11-21T09:50:08;64.17;;;26.87;;
22129;SDS011;11231;50.746;4.272;2023-11-21T09:52:44;62.83;;;27.03;;
22129;SDS011;11231;50.746;4.272;2023-11-21T09:55:27;60.07;;;27.73;;
22129;SDS011;11231;50.746;4.272;2023-11-21T09:58:00;61.53;;;26.87;;
22129;SDS011;11231;50.746;4.272;2023-11-21T10:00:28;68.70;;;28.00;;
22129;SDS011;11231;50.746;4.272;2023-11-21T10:02:57;59.33;;;26.90;;
22129;SDS011;11231;50.746;4.272;2023-11-21T10:05:23;65.93;;;26.80;;
22129;SDS011;11231;50.746;4.272;2023-11-21T10:07:49;59.50;;;26.97;;
22129;SDS011;11231;50.746;4.272;2023-11-21T10:10:17;59.70;;;27.13;;
22129;SDS011;11231;50.746;4.272;2023-11-21T10:12:48;58.03;;;25.80;;
22129;SDS011;11231;50.746;4.272;2023-11-21T10:15:18;71.33;;;29.47;;
22129;SDS011;11231;50.746;4.272;2023-11-21T10:17:46;76.23;;;31.40;;
22129;SDS011;11231;50.746;4.272;2023-11-21T10:20:14;76.67;;;31.93;;
22129;SDS011;11231;50.746;4.272;2023-11-21T10:22:41;83.07;;;31.67;;
22129;SDS011;11231;50.746;4.272;2023-11-21T10:25:08;63.43;;;28.30;;
22129;SDS011;11231;50.746;4.272;2023-11-21T10:27:34;56.30;;;25.00;;
22129;SDS011;11231;50.746;4.272;2023-11-21T10:30:02;57.70;;;24.93;;
22129;SDS011;11231;50.746;4.272;2023-11-21T10:32:29;55.63;;;24.23;;
22129;SDS011;11231;50.746;4.272;2023-11-21T10:34:57;51.87;;;24.17;;
22129;SDS011;11231;50.746;4.272;2023-11-21T10:37:32;45.80;;;21.80;;
22129;SDS011;11231;50.746;4.272;2023-11-21T10:39:58;42.77;;;20.67;;
22129;SDS011;11231;50.746;4.272;2023-11-21T10:42:24;45.60;;;20.73;;
22129;SDS011;11231;50.746;4.272;2023-11-21T10:44:51;35.57;;;19.53;;
22129;SDS011;11231;50.746;4.272;2023-11-21T10:47:17;35.10;;;19.23;;
22129;SDS011;11231;50.746;4.272;2023-11-21T10:49:44;32.53;;;17.67;;
22129;SDS011;11231;50.746;4.272;2023-11-21T10:52:13;32.43;;;17.87;;
22129;SDS011;11231;50.746;4.272;2023-11-21T10:54:45;33.70;;;18.50;;
22129;SDS011;11231;50.746;4.272;2023-11-21T10:57:13;31.57;;;17.77;;
22129;SDS011;11231;50.746;4.272;2023-11-21T10:59:43;32.83;;;17.73;;
22129;SDS011;11231;50.746;4.272;2023-11-21T11:02:23;32.07;;;17.83;;
22129;SDS011;11231;50.746;4.272;2023-11-21T11:04:55;34.77;;;18.63;;
22129;SDS011;11231;50.746;4.272;2023-11-21T11:07:25;34.90;;;19.03;;
22129;SDS011;11231;50.746;4.272;2023-11-21T11:09:53;34.93;;;18.43;;
22129;SDS011;11231;50.746;4.272;2023-11-21T11:12:20;34.47;;;19.67;;
22129;SDS011;11231;50.746;4.272;2023-11-21T11:14:46;34.97;;;20.43;;
22129;SDS011;11231;50.746;4.272;2023-11-21T11:17:13;33.73;;;20.43;;
22129;SDS011;11231;50.746;4.272;2023-11-21T11:19:39;38.30;;;20.67;;
22129;SDS011;11231;50.746;4.272;2023-11-21T11:30:20;37.17;;;22.37;;
22129;SDS011;11231;50.746;4.272;2023-11-21T11:33:07;43.03;;;23.77;;
22129;SDS011;11231;50.746;4.272;2023-11-21T11:38:12;40.80;;;23.37;;
22129;SDS011;11231;50.746;4.272;2023-11-21T11:40:41;40.93;;;23.77;;
22129;SDS011;11231;50.746;4.272;2023-11-21T11:43:10;38.43;;;22.60;;
22129;SDS011;11231;50.746;4.272;2023-11-21T11:45:36;37.67;;;22.90;;
22129;SDS011;11231;50.746;4.272;2023-11-21T11:48:18;38.90;;;23.07;;
22129;SDS011;11231;50.746;4.272;2023-11-21T11:51:06;40.60;;;22.80;;
22129;SDS011;11231;50.746;4.272;2023-11-21T11:53:40;39.30;;;22.27;;
22129;SDS011;11231;50.746;4.272;2023-11-21T11:56:25;32.90;;;21.87;;
22129;SDS011;11231;50.746;4.272;2023-11-21T11:58:57;37.70;;;21.47;;
22129;SDS011;11231;50.746;4.272;2023-11-21T12:01:24;38.23;;;20.70;;
22129;SDS011;11231;50.746;4.272;2023-11-21T12:04:22;27.27;;;18.40;;
22129;SDS011;11231;50.746;4.272;2023-11-21T12:06:52;28.03;;;16.97;;
22129;SDS011;11231;50.746;4.272;2023-11-21T12:09:22;25.70;;;17.23;;
22129;SDS011;11231;50.746;4.272;2023-11-21T12:11:49;29.10;;;18.53;;
22129;SDS011;11231;50.746;4.272;2023-11-21T12:14:15;28.93;;;16.50;;
22129;SDS011;11231;50.746;4.272;2023-11-21T12:16:42;28.20;;;17.50;;
22129;SDS011;11231;50.746;4.272;2023-11-21T12:19:08;28.23;;;15.97;;
22129;SDS011;11231;50.746;4.272;2023-11-21T12:21:36;30.33;;;16.97;;
22129;SDS011;11231;50.746;4.272;2023-11-21T12:24:02;23.60;;;14.90;;
22129;SDS011;11231;50.746;4.272;2023-11-21T12:26:28;21.97;;;13.83;;
22129;SDS011;11231;50.746;4.272;2023-11-21T12:28:54;18.50;;;11.43;;
22129;SDS011;11231;50.746;4.272;2023-11-21T12:31:21;17.60;;;11.13;;
22129;SDS011;11231;50.746;4.272;2023-11-21T12:33:47;20.63;;;11.53;;
22129;SDS011;11231;50.746;4.272;2023-11-21T12:36:13;20.80;;;11.50;;
22129;SDS011;11231;50.746;4.272;2023-11-21T12:38:39;21.10;;;12.07;;
22129;SDS011;11231;50.746;4.272;2023-11-21T12:41:05;21.17;;;11.90;;
22129;SDS011;11231;50.746;4.272;2023-11-21T12:43:31;19.87;;;12.03;;
22129;SDS011;11231;50.746;4.272;2023-11-21T12:46:10;19.80;;;12.63;;
22129;SDS011;11231;50.746;4.272;2023-11-21T12:48:44;23.77;;;13.10;;
22129;SDS011;11231;50.746;4.272;2023-11-21T12:51:12;21.73;;;14.50;;
22129;SDS011;11231;50.746;4.272;2023-11-21T12:53:41;24.50;;;14.43;;
22129;SDS011;11231;50.746;4.272;2023-11-21T12:56:10;23.57;;;11.60;;
22129;SDS011;11231;50.746;4.272;2023-11-21T12:58:36;18.03;;;10.97;;
22129;SDS011;11231;50.746;4.272;2023-11-21T13:01:05;17.70;;;10.63;;
22129;SDS011;11231;50.746;4.272;2023-11-21T13:03:39;19.93;;;9.93;;
22129;SDS011;11231;50.746;4.272;2023-11-21T13:06:05;20.17;;;9.33;;
22129;SDS011;11231;50.746;4.272;2023-11-21T13:08:33;15.73;;;9.43;;
22129;SDS011;11231;50.746;4.272;2023-11-21T13:10:59;17.90;;;9.20;;
22129;SDS011;11231;50.746;4.272;2023-11-21T13:13:27;22.20;;;9.93;;
22129;SDS011;11231;50.746;4.272;2023-11-21T13:15:54;19.63;;;9.90;;
22129;SDS011;11231;50.746;4.272;2023-11-21T13:18:30;16.37;;;9.63;;
22129;SDS011;11231;50.746;4.272;2023-11-21T13:20:59;19.33;;;9.57;;
22129;SDS011;11231;50.746;4.272;2023-11-21T13:23:35;19.13;;;10.03;;
22129;SDS011;11231;50.746;4.272;2023-11-21T13:26:02;20.37;;;9.50;;
22129;SDS011;11231;50.746;4.272;2023-11-21T13:28:31;20.27;;;9.77;;
22129;SDS011;11231;50.746;4.272;2023-11-21T13:30:58;20.70;;;9.23;;
22129;SDS011;11231;50.746;4.272;2023-11-21T13:33:34;14.73;;;9.53;;
22129;SDS011;11231;50.746;4.272;2023-11-21T13:36:06;17.03;;;9.40;;
22129;SDS011;11231;50.746;4.272;2023-11-21T13:38:35;17.83;;;9.73;;
22129;SDS011;11231;50.746;4.272;2023-11-21T13:41:02;20.00;;;11.03;;
22129;SDS011;11231;50.746;4.272;2023-11-21T13:43:32;21.97;;;10.20;;
22129;SDS011;11231;50.746;4.272;2023-11-21T13:45:58;15.73;;;10.10;;
22129;SDS011;11231;50.746;4.272;2023-11-21T13:48:33;22.30;;;10.73;;
22129;SDS011;11231;50.746;4.272;2023-11-21T13:51:12;19.00;;;10.50;;
22129;SDS011;11231;50.746;4.272;2023-11-21T13:53:45;19.07;;;10.77;;
22129;SDS011;11231;50.746;4.272;2023-11-21T13:56:18;23.03;;;10.30;;
22129;SDS011;11231;50.746;4.272;2023-11-21T13:58:53;17.73;;;9.40;;
22129;SDS011;11231;50.746;4.272;2023-11-21T14:01:21;15.73;;;9.77;;
22129;SDS011;11231;50.746;4.272;2023-11-21T14:04:00;21.70;;;11.40;;
22129;SDS011;11231;50.746;4.272;2023-11-21T14:06:34;19.70;;;11.83;;
22129;SDS011;11231;50.746;4.272;2023-11-21T14:09:10;22.70;;;13.87;;
22129;SDS011;11231;50.746;4.272;2023-11-21T14:11:39;23.70;;;14.30;;
22129;SDS011;11231;50.746;4.272;2023-11-21T14:14:04;19.73;;;13.37;;
22129;SDS011;11231;50.746;4.272;2023-11-21T14:16:30;20.50;;;12.83;;
22129;SDS011;11231;50.746;4.272;2023-11-21T14:18:56;20.37;;;12.60;;
22129;SDS011;11231;50.746;4.272;2023-11-21T14:21:29;19.40;;;12.60;;
22129;SDS011;11231;50.746;4.272;2023-11-21T14:23:54;18.53;;;12.93;;
22129;SDS011;11231;50.746;4.272;2023-11-21T14:26:20;19.23;;;13.53;;
22129;SDS011;11231;50.746;4.272;2023-11-21T14:28:48;21.63;;;13.57;;
22129;SDS011;11231;50.746;4.272;2023-11-21T14:31:14;22.77;;;15.27;;
22129;SDS011;11231;50.746;4.272;2023-11-21T14:33:42;26.23;;;15.27;;